sensor_id;sensor_type;location;lat;lon;timestamp;temperature;humidity
15717;DHT22;7960;50.908;4.204;2023-05-31T00:02:24;14.20;99.90
15717;DHT22;7960;50.908;4.204;2023-05-31T00:04:51;14.20;99.90
15717;DHT22;7960;50.908;4.204;2023-05-31T00:07:18;14.10;99.90
15717;DHT22;7960;50.908;4.204;2023-05-31T00:09:45;14.10;99.90
15717;DHT22;7960;50.908;4.204;2023-05-31T00:12:12;14.00;99.90
15717;DHT22;7960;50.908;4.204;2023-05-31T00:14:40;14.10;99.90
15717;DHT22;7960;50.908;4.204;2023-05-31T00:17:07;14.00;99.90
15717;DHT22;7960;50.908;4.204;2023-05-31T00:19:34;14.00;99.90
15717;DHT22;7960;50.908;4.204;2023-05-31T00:22:01;14.00;99.90
15717;DHT22;7960;50.908;4.204;2023-05-31T00:24:28;14.10;99.90
15717;DHT22;7960;50.908;4.204;2023-05-31T00:26:54;14.00;99.90
15717;DHT22;7960;50.908;4.204;2023-05-31T00:29:21;13.90;99.90
15717;DHT22;7960;50.908;4.204;2023-05-31T00:31:50;13.90;99.90
15717;DHT22;7960;50.908;4.204;2023-05-31T00:34:16;14.00;99.90
15717;DHT22;7960;50.908;4.204;2023-05-31T00:36:43;14.00;99.90
15717;DHT22;7960;50.908;4.204;2023-05-31T00:39:10;13.90;99.90
15717;DHT22;7960;50.908;4.204;2023-05-31T00:41:37;14.00;99.90
15717;DHT22;7960;50.908;4.204;2023-05-31T00:44:04;14.00;99.90
15717;DHT22;7960;50.908;4.204;2023-05-31T00:46:32;13.90;99.90
15717;DHT22;7960;50.908;4.204;2023-05-31T00:49:02;13.90;99.90
15717;DHT22;7960;50.908;4.204;2023-05-31T00:51:30;13.80;99.90
15717;DHT22;7960;50.908;4.204;2023-05-31T00:53:59;13.90;99.90
15717;DHT22;7960;50.908;4.204;2023-05-31T00:56:26;13.90;99.90
15717;DHT22;7960;50.908;4.204;2023-05-31T00:58:54;13.80;99.90
15717;DHT22;7960;50.908;4.204;2023-05-31T01:01:23;13.70;99.90
15717;DHT22;7960;50.908;4.204;2023-05-31T01:03:52;13.90;99.90
15717;DHT22;7960;50.908;4.204;2023-05-31T01:06:20;13.80;99.90
15717;DHT22;7960;50.908;4.204;2023-05-31T01:08:48;13.80;99.90
15717;DHT22;7960;50.908;4.204;2023-05-31T01:11:21;13.70;99.90
15717;DHT22;7960;50.908;4.204;2023-05-31T01:13:56;13.70;99.90
15717;DHT22;7960;50.908;4.204;2023-05-31T01:16:28;13.60;99.90
15717;DHT22;7960;50.908;4.204;2023-05-31T01:18:58;13.60;99.90
15717;DHT22;7960;50.908;4.204;2023-05-31T01:21:37;13.60;99.90
15717;DHT22;7960;50.908;4.204;2023-05-31T01:24:22;13.60;99.90
15717;DHT22;7960;50.908;4.204;2023-05-31T01:26:55;13.50;99.90
15717;DHT22;7960;50.908;4.204;2023-05-31T01:29:27;13.50;99.90
15717;DHT22;7960;50.908;4.204;2023-05-31T01:31:58;13.30;99.90
15717;DHT22;7960;50.908;4.204;2023-05-31T01:41:48;13.30;99.90
15717;DHT22;7960;50.908;4.204;2023-05-31T01:46:46;13.30;99.90
15717;DHT22;7960;50.908;4.204;2023-05-31T01:49:14;13.20;99.90
15717;DHT22;7960;50.908;4.204;2023-05-31T10:12:18;13.10;99.90
15717;DHT22;7960;50.908;4.204;2023-05-31T10:19:52;22.40;94.80
15717;DHT22;7960;50.908;4.204;2023-05-31T10:22:21;22.60;93.40
15717;DHT22;7960;50.908;4.204;2023-05-31T10:24:52;22.90;93.30
15717;DHT22;7960;50.908;4.204;2023-05-31T10:27:29;22.90;92.10
15717;DHT22;7960;50.908;4.204;2023-05-31T10:30:01;23.20;92.20
15717;DHT22;7960;50.908;4.204;2023-05-31T10:32:33;23.30;91.70
15717;DHT22;7960;50.908;4.204;2023-05-31T10:35:01;23.00;91.50
15717;DHT22;7960;50.908;4.204;2023-05-31T10:37:29;23.30;92.00
15717;DHT22;7960;50.908;4.204;2023-05-31T10:40:04;23.40;91.30
15717;DHT22;7960;50.908;4.204;2023-05-31T10:42:40;23.40;90.90
15717;DHT22;7960;50.908;4.204;2023-05-31T10:45:13;23.10;91.20
15717;DHT22;7960;50.908;4.204;2023-05-31T10:47:46;23.30;90.40
15717;DHT22;7960;50.908;4.204;2023-05-31T10:50:17;23.50;90.30
15717;DHT22;7960;50.908;4.204;2023-05-31T10:52:48;23.70;88.60
15717;DHT22;7960;50.908;4.204;2023-05-31T10:55:17;23.70;86.90
15717;DHT22;7960;50.908;4.204;2023-05-31T10:57:44;23.70;86.30
15717;DHT22;7960;50.908;4.204;2023-05-31T11:00:19;23.70;87.10
15717;DHT22;7960;50.908;4.204;2023-05-31T11:02:50;24.00;87.90
15717;DHT22;7960;50.908;4.204;2023-05-31T11:05:21;24.10;84.70
15717;DHT22;7960;50.908;4.204;2023-05-31T11:07:49;24.00;85.70
15717;DHT22;7960;50.908;4.204;2023-05-31T11:10:26;24.10;84.20
15717;DHT22;7960;50.908;4.204;2023-05-31T11:12:56;23.90;82.90
15717;DHT22;7960;50.908;4.204;2023-05-31T11:15:38;24.00;82.00
15717;DHT22;7960;50.908;4.204;2023-05-31T11:18:09;24.10;82.20
15717;DHT22;7960;50.908;4.204;2023-05-31T11:20:36;24.10;81.50
15717;DHT22;7960;50.908;4.204;2023-05-31T11:23:23;24.30;79.40
15717;DHT22;7960;50.908;4.204;2023-05-31T11:26:14;23.90;75.60
15717;DHT22;7960;50.908;4.204;2023-05-31T11:28:59;24.00;76.00
15717;DHT22;7960;50.908;4.204;2023-05-31T11:31:57;24.30;75.70
15717;DHT22;7960;50.908;4.204;2023-05-31T11:34:28;24.50;74.70
15717;DHT22;7960;50.908;4.204;2023-05-31T11:37:00;24.70;74.80
15717;DHT22;7960;50.908;4.204;2023-05-31T11:39:30;25.00;75.80
15717;DHT22;7960;50.908;4.204;2023-05-31T11:41:58;24.90;73.70
15717;DHT22;7960;50.908;4.204;2023-05-31T11:44:27;24.70;73.10
15717;DHT22;7960;50.908;4.204;2023-05-31T11:47:00;24.90;74.80
15717;DHT22;7960;50.908;4.204;2023-05-31T11:49:30;25.00;74.00
15717;DHT22;7960;50.908;4.204;2023-05-31T11:51:57;25.30;73.00
15717;DHT22;7960;50.908;4.204;2023-05-31T11:54:26;25.40;72.20
15717;DHT22;7960;50.908;4.204;2023-05-31T11:56:59;25.60;71.20
15717;DHT22;7960;50.908;4.204;2023-05-31T11:59:26;25.60;70.10
15717;DHT22;7960;50.908;4.204;2023-05-31T12:01:58;25.30;69.70
15717;DHT22;7960;50.908;4.204;2023-05-31T12:04:32;25.10;70.40
15717;DHT22;7960;50.908;4.204;2023-05-31T12:06:59;25.50;69.70
15717;DHT22;7960;50.908;4.204;2023-05-31T12:09:27;25.60;69.00
15717;DHT22;7960;50.908;4.204;2023-05-31T12:11:54;25.60;69.70
15717;DHT22;7960;50.908;4.204;2023-05-31T12:14:22;25.90;69.80
15717;DHT22;7960;50.908;4.204;2023-05-31T12:16:49;26.10;68.70
15717;DHT22;7960;50.908;4.204;2023-05-31T12:19:17;26.10;67.20
15717;DHT22;7960;50.908;4.204;2023-05-31T12:21:46;26.20;66.50
15717;DHT22;7960;50.908;4.204;2023-05-31T12:24:14;26.30;66.80
15717;DHT22;7960;50.908;4.204;2023-05-31T12:26:42;26.30;66.00
15717;DHT22;7960;50.908;4.204;2023-05-31T12:29:11;26.20;65.40
15717;DHT22;7960;50.908;4.204;2023-05-31T12:31:38;26.30;65.60
15717;DHT22;7960;50.908;4.204;2023-05-31T12:34:07;26.20;65.60
15717;DHT22;7960;50.908;4.204;2023-05-31T12:36:39;26.50;66.90
15717;DHT22;7960;50.908;4.204;2023-05-31T12:39:12;26.60;66.80
15717;DHT22;7960;50.908;4.204;2023-05-31T12:41:43;26.90;66.00
15717;DHT22;7960;50.908;4.204;2023-05-31T12:44:12;27.10;65.10
15717;DHT22;7960;50.908;4.204;2023-05-31T12:46:42;27.20;63.80
15717;DHT22;7960;50.908;4.204;2023-05-31T12:49:13;27.20;63.70
15717;DHT22;7960;50.908;4.204;2023-05-31T12:51:41;27.40;63.60
15717;DHT22;7960;50.908;4.204;2023-05-31T12:54:15;27.50;62.20
15717;DHT22;7960;50.908;4.204;2023-05-31T12:56:43;27.70;61.80
15717;DHT22;7960;50.908;4.204;2023-05-31T12:59:10;27.40;60.60
15717;DHT22;7960;50.908;4.204;2023-05-31T13:01:37;27.50;62.20
15717;DHT22;7960;50.908;4.204;2023-05-31T13:04:06;27.20;61.40
15717;DHT22;7960;50.908;4.204;2023-05-31T13:06:33;27.30;61.60
15717;DHT22;7960;50.908;4.204;2023-05-31T13:09:01;27.60;63.00
15717;DHT22;7960;50.908;4.204;2023-05-31T13:11:32;27.80;63.00
15717;DHT22;7960;50.908;4.204;2023-05-31T13:14:00;27.50;59.10
15717;DHT22;7960;50.908;4.204;2023-05-31T13:16:28;27.30;59.30
15717;DHT22;7960;50.908;4.204;2023-05-31T13:18:55;27.20;59.20
15717;DHT22;7960;50.908;4.204;2023-05-31T13:21:23;27.30;60.90
15717;DHT22;7960;50.908;4.204;2023-05-31T13:23:50;27.70;60.20
15717;DHT22;7960;50.908;4.204;2023-05-31T13:26:17;27.90;60.20
15717;DHT22;7960;50.908;4.204;2023-05-31T13:28:46;28.00;60.40
15717;DHT22;7960;50.908;4.204;2023-05-31T13:31:13;28.20;59.60
15717;DHT22;7960;50.908;4.204;2023-05-31T13:33:41;28.30;58.60
15717;DHT22;7960;50.908;4.204;2023-05-31T13:36:08;28.10;58.20
15717;DHT22;7960;50.908;4.204;2023-05-31T13:38:35;28.10;59.00
15717;DHT22;7960;50.908;4.204;2023-05-31T13:41:02;28.50;59.50
15717;DHT22;7960;50.908;4.204;2023-05-31T13:43:31;28.60;58.10
15717;DHT22;7960;50.908;4.204;2023-05-31T13:46:00;28.40;58.10
15717;DHT22;7960;50.908;4.204;2023-05-31T13:48:27;28.70;57.50
15717;DHT22;7960;50.908;4.204;2023-05-31T13:50:54;28.70;57.40
15717;DHT22;7960;50.908;4.204;2023-05-31T13:53:21;28.80;58.60
15717;DHT22;7960;50.908;4.204;2023-05-31T13:55:48;29.50;59.00
15717;DHT22;7960;50.908;4.204;2023-05-31T13:58:16;29.60;57.60
15717;DHT22;7960;50.908;4.204;2023-05-31T14:00:43;29.70;57.20
15717;DHT22;7960;50.908;4.204;2023-05-31T14:03:12;29.50;56.90
15717;DHT22;7960;50.908;4.204;2023-05-31T14:05:39;29.10;57.50
15717;DHT22;7960;50.908;4.204;2023-05-31T14:08:06;29.40;58.10
15717;DHT22;7960;50.908;4.204;2023-05-31T14:10:33;29.50;56.90
15717;DHT22;7960;50.908;4.204;2023-05-31T14:13:00;29.40;55.60
15717;DHT22;7960;50.908;4.204;2023-05-31T14:15:27;29.60;56.40
15717;DHT22;7960;50.908;4.204;2023-05-31T14:17:54;29.60;55.40
15717;DHT22;7960;50.908;4.204;2023-05-31T14:20:22;29.10;55.10
15717;DHT22;7960;50.908;4.204;2023-05-31T14:22:49;28.90;56.70
15717;DHT22;7960;50.908;4.204;2023-05-31T14:25:19;29.30;57.20
15717;DHT22;7960;50.908;4.204;2023-05-31T14:27:46;29.40;56.00
15717;DHT22;7960;50.908;4.204;2023-05-31T14:30:12;29.00;54.80
15717;DHT22;7960;50.908;4.204;2023-05-31T14:32:39;29.00;55.60
15717;DHT22;7960;50.908;4.204;2023-05-31T14:35:08;29.50;56.10
15717;DHT22;7960;50.908;4.204;2023-05-31T14:37:37;29.80;55.00
15717;DHT22;7960;50.908;4.204;2023-05-31T14:40:05;29.50;55.50
15717;DHT22;7960;50.908;4.204;2023-05-31T14:42:32;29.20;55.20
15717;DHT22;7960;50.908;4.204;2023-05-31T14:44:59;29.30;55.60
15717;DHT22;7960;50.908;4.204;2023-05-31T14:47:29;29.60;55.60
15717;DHT22;7960;50.908;4.204;2023-05-31T14:49:55;30.10;55.10
15717;DHT22;7960;50.908;4.204;2023-05-31T14:52:22;29.80;55.10
15717;DHT22;7960;50.908;4.204;2023-05-31T14:54:50;29.80;53.90
15717;DHT22;7960;50.908;4.204;2023-05-31T14:57:17;29.80;53.90
15717;DHT22;7960;50.908;4.204;2023-05-31T14:59:47;29.60;53.80
15717;DHT22;7960;50.908;4.204;2023-05-31T15:02:14;29.80;55.50
15717;DHT22;7960;50.908;4.204;2023-05-31T15:04:41;30.00;53.40
15717;DHT22;7960;50.908;4.204;2023-05-31T15:07:08;29.80;53.90
15717;DHT22;7960;50.908;4.204;2023-05-31T15:09:35;29.90;53.70
15717;DHT22;7960;50.908;4.204;2023-05-31T15:12:04;30.00;53.30
15717;DHT22;7960;50.908;4.204;2023-05-31T15:14:32;29.80;53.90
15717;DHT22;7960;50.908;4.204;2023-05-31T15:16:59;29.60;53.70
15717;DHT22;7960;50.908;4.204;2023-05-31T15:19:26;29.50;53.70
15717;DHT22;7960;50.908;4.204;2023-05-31T15:21:54;29.80;53.40
15717;DHT22;7960;50.908;4.204;2023-05-31T15:24:20;29.80;53.90
15717;DHT22;7960;50.908;4.204;2023-05-31T15:26:47;29.50;53.90
15717;DHT22;7960;50.908;4.204;2023-05-31T15:29:15;29.50;53.70
15717;DHT22;7960;50.908;4.204;2023-05-31T15:31:42;29.50;53.90
15717;DHT22;7960;50.908;4.204;2023-05-31T15:34:09;28.60;54.00
15717;DHT22;7960;50.908;4.204;2023-05-31T15:36:36;28.60;55.20
15717;DHT22;7960;50.908;4.204;2023-05-31T15:39:03;28.70;55.90
15717;DHT22;7960;50.908;4.204;2023-05-31T15:41:32;28.70;55.50
15717;DHT22;7960;50.908;4.204;2023-05-31T15:43:59;28.60;55.50
15717;DHT22;7960;50.908;4.204;2023-05-31T15:46:29;28.70;56.30
15717;DHT22;7960;50.908;4.204;2023-05-31T15:48:55;28.50;55.80
15717;DHT22;7960;50.908;4.204;2023-05-31T15:51:22;28.40;56.30
15717;DHT22;7960;50.908;4.204;2023-05-31T15:53:50;27.80;56.00
15717;DHT22;7960;50.908;4.204;2023-05-31T15:56:16;27.80;57.10
15717;DHT22;7960;50.908;4.204;2023-05-31T15:58:43;28.40;56.90
15717;DHT22;7960;50.908;4.204;2023-05-31T16:01:10;28.80;56.90
15717;DHT22;7960;50.908;4.204;2023-05-31T16:03:38;28.50;55.90
15717;DHT22;7960;50.908;4.204;2023-05-31T16:06:06;28.80;56.40
15717;DHT22;7960;50.908;4.204;2023-05-31T16:08:32;28.60;56.00
15717;DHT22;7960;50.908;4.204;2023-05-31T16:10:59;28.30;57.00
15717;DHT22;7960;50.908;4.204;2023-05-31T16:13:26;28.00;57.50
15717;DHT22;7960;50.908;4.204;2023-05-31T16:15:53;28.00;57.60
15717;DHT22;7960;50.908;4.204;2023-05-31T16:18:20;28.20;57.20
15717;DHT22;7960;50.908;4.204;2023-05-31T16:20:48;28.60;57.30
15717;DHT22;7960;50.908;4.204;2023-05-31T16:23:15;28.30;57.20
15717;DHT22;7960;50.908;4.204;2023-05-31T16:25:42;28.40;57.00
15717;DHT22;7960;50.908;4.204;2023-05-31T16:28:08;28.30;57.30
15717;DHT22;7960;50.908;4.204;2023-05-31T16:30:35;28.70;56.10
15717;DHT22;7960;50.908;4.204;2023-05-31T16:33:02;28.40;56.20
15717;DHT22;7960;50.908;4.204;2023-05-31T16:35:31;28.20;56.60
15717;DHT22;7960;50.908;4.204;2023-05-31T16:37:59;28.30;57.60
15717;DHT22;7960;50.908;4.204;2023-05-31T17:49:29;28.00;58.00
15717;DHT22;7960;50.908;4.204;2023-05-31T17:51:55;27.60;60.10
15717;DHT22;7960;50.908;4.204;2023-05-31T17:54:22;27.60;60.10
15717;DHT22;7960;50.908;4.204;2023-05-31T17:56:49;27.30;60.30
15717;DHT22;7960;50.908;4.204;2023-05-31T17:59:16;27.40;60.60
15717;DHT22;7960;50.908;4.204;2023-05-31T18:01:44;27.50;60.20
15717;DHT22;7960;50.908;4.204;2023-05-31T18:04:13;27.40;60.50
15717;DHT22;7960;50.908;4.204;2023-05-31T18:06:39;27.50;61.40
15717;DHT22;7960;50.908;4.204;2023-05-31T18:09:06;27.30;60.70
15717;DHT22;7960;50.908;4.204;2023-05-31T18:11:33;26.90;60.70
15717;DHT22;7960;50.908;4.204;2023-05-31T18:14:00;26.70;61.60
15717;DHT22;7960;50.908;4.204;2023-05-31T18:16:28;26.50;62.10
15717;DHT22;7960;50.908;4.204;2023-05-31T18:18:56;26.50;62.40
15717;DHT22;7960;50.908;4.204;2023-05-31T18:21:24;26.30;63.30
15717;DHT22;7960;50.908;4.204;2023-05-31T18:23:51;26.00;64.20
15717;DHT22;7960;50.908;4.204;2023-05-31T18:26:18;25.80;65.00
15717;DHT22;7960;50.908;4.204;2023-05-31T18:28:46;25.60;65.80
15717;DHT22;7960;50.908;4.204;2023-05-31T18:31:14;25.40;66.00
15717;DHT22;7960;50.908;4.204;2023-05-31T18:33:41;25.30;66.80
15717;DHT22;7960;50.908;4.204;2023-05-31T18:36:08;25.10;67.60
15717;DHT22;7960;50.908;4.204;2023-05-31T18:38:44;24.80;68.30
15717;DHT22;7960;50.908;4.204;2023-05-31T18:41:11;24.80;68.90
15717;DHT22;7960;50.908;4.204;2023-05-31T18:43:40;24.60;69.60
15717;DHT22;7960;50.908;4.204;2023-05-31T18:46:07;24.50;70.20
15717;DHT22;7960;50.908;4.204;2023-05-31T18:48:35;24.60;70.30
15717;DHT22;7960;50.908;4.204;2023-05-31T18:51:03;24.60;70.60
15717;DHT22;7960;50.908;4.204;2023-05-31T18:53:31;24.30;70.80
15717;DHT22;7960;50.908;4.204;2023-05-31T18:55:59;24.30;71.40
15717;DHT22;7960;50.908;4.204;2023-05-31T18:58:26;24.20;72.00
15717;DHT22;7960;50.908;4.204;2023-05-31T19:00:55;24.10;74.20
15717;DHT22;7960;50.908;4.204;2023-05-31T19:05:49;24.10;75.60
15717;DHT22;7960;50.908;4.204;2023-05-31T19:08:16;23.90;81.30
15717;DHT22;7960;50.908;4.204;2023-05-31T19:10:44;23.80;83.70
15717;DHT22;7960;50.908;4.204;2023-05-31T19:13:13;23.70;86.60
15717;DHT22;7960;50.908;4.204;2023-05-31T19:15:40;23.60;88.90
15717;DHT22;7960;50.908;4.204;2023-05-31T19:18:07;23.60;90.30
15717;DHT22;7960;50.908;4.204;2023-05-31T19:20:34;23.40;91.00
15717;DHT22;7960;50.908;4.204;2023-05-31T19:23:01;23.30;91.60
15717;DHT22;7960;50.908;4.204;2023-05-31T19:25:28;23.10;92.30
15717;DHT22;7960;50.908;4.204;2023-05-31T19:27:55;22.90;92.90
15717;DHT22;7960;50.908;4.204;2023-05-31T19:35:18;22.90;93.40
15717;DHT22;7960;50.908;4.204;2023-05-31T19:47:35;22.80;94.90
15717;DHT22;7960;50.908;4.204;2023-05-31T19:50:02;22.20;97.00
15717;DHT22;7960;50.908;4.204;2023-05-31T19:52:29;22.10;97.30
15717;DHT22;7960;50.908;4.204;2023-05-31T19:54:56;22.00;97.70
15717;DHT22;7960;50.908;4.204;2023-05-31T19:57:24;22.00;98.10
15717;DHT22;7960;50.908;4.204;2023-05-31T19:59:50;21.90;98.40
15717;DHT22;7960;50.908;4.204;2023-05-31T20:02:19;21.80;98.60
15717;DHT22;7960;50.908;4.204;2023-05-31T20:04:47;21.70;99.10
15717;DHT22;7960;50.908;4.204;2023-05-31T20:07:14;21.70;99.30
15717;DHT22;7960;50.908;4.204;2023-05-31T20:09:41;21.70;99.40
15717;DHT22;7960;50.908;4.204;2023-05-31T20:12:09;21.70;99.60
15717;DHT22;7960;50.908;4.204;2023-05-31T20:14:36;21.60;99.90
15717;DHT22;7960;50.908;4.204;2023-05-31T20:17:03;21.60;99.90
15717;DHT22;7960;50.908;4.204;2023-05-31T20:19:31;21.50;99.90
15717;DHT22;7960;50.908;4.204;2023-05-31T20:21:59;21.50;99.90
15717;DHT22;7960;50.908;4.204;2023-05-31T20:24:26;21.40;99.90
15717;DHT22;7960;50.908;4.204;2023-05-31T20:26:53;21.30;99.90
15717;DHT22;7960;50.908;4.204;2023-05-31T20:29:20;21.20;99.90
15717;DHT22;7960;50.908;4.204;2023-05-31T20:31:47;21.10;99.90
15717;DHT22;7960;50.908;4.204;2023-05-31T20:34:14;21.10;99.90
15717;DHT22;7960;50.908;4.204;2023-05-31T20:36:41;21.10;99.90
15717;DHT22;7960;50.908;4.204;2023-05-31T20:39:09;21.00;99.90
15717;DHT22;7960;50.908;4.204;2023-05-31T20:41:36;20.90;99.90
15717;DHT22;7960;50.908;4.204;2023-05-31T20:44:05;21.00;99.90
15717;DHT22;7960;50.908;4.204;2023-05-31T20:46:31;21.00;99.90
15717;DHT22;7960;50.908;4.204;2023-05-31T20:48:58;20.80;99.90
15717;DHT22;7960;50.908;4.204;2023-05-31T20:51:25;20.80;99.90
15717;DHT22;7960;50.908;4.204;2023-05-31T20:53:52;20.80;99.90
15717;DHT22;7960;50.908;4.204;2023-05-31T20:56:20;20.50;99.90
15717;DHT22;7960;50.908;4.204;2023-05-31T20:58:47;20.40;99.90
15717;DHT22;7960;50.908;4.204;2023-05-31T21:01:14;20.40;99.90
15717;DHT22;7960;50.908;4.204;2023-05-31T21:03:41;20.30;99.90
15717;DHT22;7960;50.908;4.204;2023-05-31T21:06:08;20.30;99.90
15717;DHT22;7960;50.908;4.204;2023-05-31T21:08:35;20.20;99.90
15717;DHT22;7960;50.908;4.204;2023-05-31T21:11:02;20.10;99.90
15717;DHT22;7960;50.908;4.204;2023-05-31T21:13:34;20.10;99.90
15717;DHT22;7960;50.908;4.204;2023-05-31T21:16:01;20.10;99.90
15717;DHT22;7960;50.908;4.204;2023-05-31T21:18:27;20.00;99.90
15717;DHT22;7960;50.908;4.204;2023-05-31T21:20:54;19.80;99.90
15717;DHT22;7960;50.908;4.204;2023-05-31T21:23:24;19.80;99.90
15717;DHT22;7960;50.908;4.204;2023-05-31T21:25:51;19.70;99.90
15717;DHT22;7960;50.908;4.204;2023-05-31T21:28:18;19.70;99.90
15717;DHT22;7960;50.908;4.204;2023-05-31T21:30:47;19.70;99.90
15717;DHT22;7960;50.908;4.204;2023-05-31T21:33:14;19.60;99.90
15717;DHT22;7960;50.908;4.204;2023-05-31T21:35:41;19.50;99.90
15717;DHT22;7960;50.908;4.204;2023-05-31T21:40:35;19.40;99.90
15717;DHT22;7960;50.908;4.204;2023-05-31T21:43:02;19.30;99.90
15717;DHT22;7960;50.908;4.204;2023-05-31T21:45:29;19.30;99.90
15717;DHT22;7960;50.908;4.204;2023-05-31T21:47:57;19.20;99.90
15717;DHT22;7960;50.908;4.204;2023-05-31T21:50:24;19.20;99.90
15717;DHT22;7960;50.908;4.204;2023-05-31T21:52:51;19.00;99.90
15717;DHT22;7960;50.908;4.204;2023-05-31T21:55:18;18.80;99.90
15717;DHT22;7960;50.908;4.204;2023-05-31T21:57:44;18.80;99.90
15717;DHT22;7960;50.908;4.204;2023-05-31T22:00:12;18.80;99.90
15717;DHT22;7960;50.908;4.204;2023-05-31T22:02:40;18.70;99.90
15717;DHT22;7960;50.908;4.204;2023-05-31T22:05:08;18.70;99.90
15717;DHT22;7960;50.908;4.204;2023-05-31T22:07:35;18.70;99.90
15717;DHT22;7960;50.908;4.204;2023-05-31T22:10:03;18.50;99.90
15717;DHT22;7960;50.908;4.204;2023-05-31T22:12:30;18.50;99.90
15717;DHT22;7960;50.908;4.204;2023-05-31T22:14:57;18.40;99.90
15717;DHT22;7960;50.908;4.204;2023-05-31T22:17:24;18.30;99.90
15717;DHT22;7960;50.908;4.204;2023-05-31T22:19:52;18.40;99.90
15717;DHT22;7960;50.908;4.204;2023-05-31T22:22:26;18.40;99.90
15717;DHT22;7960;50.908;4.204;2023-05-31T22:24:53;18.40;99.90
15717;DHT22;7960;50.908;4.204;2023-05-31T22:27:20;18.20;99.90
15717;DHT22;7960;50.908;4.204;2023-05-31T22:29:49;18.00;99.90
15717;DHT22;7960;50.908;4.204;2023-05-31T22:32:17;17.90;99.90
15717;DHT22;7960;50.908;4.204;2023-05-31T22:34:44;18.00;99.90
15717;DHT22;7960;50.908;4.204;2023-05-31T22:37:11;18.00;99.90
15717;DHT22;7960;50.908;4.204;2023-05-31T22:39:40;17.80;99.90
15717;DHT22;7960;50.908;4.204;2023-05-31T22:42:08;17.70;99.90
15717;DHT22;7960;50.908;4.204;2023-05-31T22:44:35;17.70;99.90
15717;DHT22;7960;50.908;4.204;2023-05-31T22:47:02;17.60;99.90
15717;DHT22;7960;50.908;4.204;2023-05-31T22:49:30;17.60;99.90
15717;DHT22;7960;50.908;4.204;2023-05-31T22:51:57;17.50;99.90
15717;DHT22;7960;50.908;4.204;2023-05-31T22:54:25;17.40;99.90
15717;DHT22;7960;50.908;4.204;2023-05-31T22:56:54;17.30;99.90
15717;DHT22;7960;50.908;4.204;2023-05-31T22:59:20;17.20;99.90
15717;DHT22;7960;50.908;4.204;2023-05-31T23:01:50;17.30;99.90
15717;DHT22;7960;50.908;4.204;2023-05-31T23:04:16;17.30;99.90
15717;DHT22;7960;50.908;4.204;2023-05-31T23:06:44;17.20;99.90
15717;DHT22;7960;50.908;4.204;2023-05-31T23:09:12;17.20;99.90
15717;DHT22;7960;50.908;4.204;2023-05-31T23:11:40;17.10;99.90
15717;DHT22;7960;50.908;4.204;2023-05-31T23:14:09;17.00;99.90
15717;DHT22;7960;50.908;4.204;2023-05-31T23:16:36;17.00;99.90
15717;DHT22;7960;50.908;4.204;2023-05-31T23:19:03;17.00;99.90
15717;DHT22;7960;50.908;4.204;2023-05-31T23:21:32;17.00;99.90
15717;DHT22;7960;50.908;4.204;2023-05-31T23:24:02;17.00;99.90
15717;DHT22;7960;50.908;4.204;2023-05-31T23:26:30;16.90;99.90
15717;DHT22;7960;50.908;4.204;2023-05-31T23:28:57;16.80;99.90
15717;DHT22;7960;50.908;4.204;2023-05-31T23:31:25;16.70;99.90
15717;DHT22;7960;50.908;4.204;2023-05-31T23:33:52;16.80;99.90
15717;DHT22;7960;50.908;4.204;2023-05-31T23:36:19;16.70;99.90
15717;DHT22;7960;50.908;4.204;2023-05-31T23:38:46;16.70;99.90
15717;DHT22;7960;50.908;4.204;2023-05-31T23:41:14;16.70;99.90
15717;DHT22;7960;50.908;4.204;2023-05-31T23:43:41;16.60;99.90
15717;DHT22;7960;50.908;4.204;2023-05-31T23:46:07;16.60;99.90
15717;DHT22;7960;50.908;4.204;2023-05-31T23:48:36;16.60;99.90
15717;DHT22;7960;50.908;4.204;2023-05-31T23:51:03;16.60;99.90
15717;DHT22;7960;50.908;4.204;2023-05-31T23:53:30;16.50;99.90
15717;DHT22;7960;50.908;4.204;2023-05-31T23:55:57;16.40;99.90
15717;DHT22;7960;50.908;4.204;2023-05-31T23:58:24;16.40;99.90
